YBCR weather

Batchelor Airport
Northern Territory, Australia

Public forecast

Using degrees Celsius for public forecast. Weather courtesy of forecast.io.

METAR (pilot weather report)

Closest report is Darwin International Airport, 40.2 nm (74.4 km) NNW. Retrieved 2019/02/17 21:30 UTC (26 minutes ago):

YPDN 172130Z 28003KT 9999 FEW016 BKN140 28/25 Q1009 NOSIG

TAF (pilot weather forecast)

Closest forecast is Darwin International Airport, 40.2 nm (74.4 km) NNW. Retrieved 2019/02/17 18:00 UTC (4 hours ago):

TAF YPDN 171719Z 1718/1824 25008KT 9999 FEW015 FM180300 30012KT 9999 SCT030 FM180900 28007KT 9999 FEW015 PROB30 TEMPO 1805/1810 VRB20G35KT 1000 TSRA BKN010 SCT020CB